sensor_id;sensor_type;location;lat;lon;timestamp;temperature;humidity
65752;DHT22;52486;51.098;13.770;2023-05-31T03:05:37;24.70;71.50
65752;DHT22;52486;51.098;13.770;2023-05-31T03:08:03;24.60;71.00
65752;DHT22;52486;51.098;13.770;2023-05-31T03:10:29;24.70;69.90
65752;DHT22;52486;51.098;13.770;2023-05-31T03:15:21;24.60;69.00
65752;DHT22;52486;51.098;13.770;2023-05-31T03:17:46;24.80;70.70
65752;DHT22;52486;51.098;13.770;2023-05-31T03:20:12;24.60;70.40
65752;DHT22;52486;51.098;13.770;2023-05-31T03:22:38;24.60;70.50
65752;DHT22;52486;51.098;13.770;2023-05-31T03:25:05;24.60;70.70
65752;DHT22;52486;51.098;13.770;2023-05-31T03:27:31;24.70;71.10
65752;DHT22;52486;51.098;13.770;2023-05-31T03:39:41;24.50;71.60
65752;DHT22;52486;51.098;13.770;2023-05-31T03:42:07;24.60;71.50
65752;DHT22;52486;51.098;13.770;2023-05-31T03:44:32;24.80;68.80
65752;DHT22;52486;51.098;13.770;2023-05-31T03:46:58;24.60;68.70
65752;DHT22;52486;51.098;13.770;2023-05-31T03:49:24;24.70;68.00
65752;DHT22;52486;51.098;13.770;2023-05-31T03:51:50;24.30;67.40
65752;DHT22;52486;51.098;13.770;2023-05-31T03:54:16;24.50;67.30
65752;DHT22;52486;51.098;13.770;2023-05-31T03:56:41;24.70;67.40
65752;DHT22;52486;51.098;13.770;2023-05-31T03:59:08;24.50;67.10
65752;DHT22;52486;51.098;13.770;2023-05-31T04:01:34;24.70;67.20
65752;DHT22;52486;51.098;13.770;2023-05-31T04:04:00;24.60;66.80
65752;DHT22;52486;51.098;13.770;2023-05-31T04:06:25;24.60;66.60
65752;DHT22;52486;51.098;13.770;2023-05-31T04:08:52;24.60;77.00
65752;DHT22;52486;51.098;13.770;2023-05-31T04:11:18;24.50;66.10
65752;DHT22;52486;51.098;13.770;2023-05-31T04:13:44;24.60;66.20
65752;DHT22;52486;51.098;13.770;2023-05-31T04:16:09;24.50;66.10
65752;DHT22;52486;51.098;13.770;2023-05-31T04:18:35;24.50;66.50
65752;DHT22;52486;51.098;13.770;2023-05-31T04:21:01;24.70;66.80
65752;DHT22;52486;51.098;13.770;2023-05-31T04:23:27;25.70;78.20
65752;DHT22;52486;51.098;13.770;2023-05-31T04:25:52;24.60;67.00
65752;DHT22;52486;51.098;13.770;2023-05-31T04:30:45;24.50;64.60
65752;DHT22;52486;51.098;13.770;2023-05-31T04:33:11;24.60;65.90
65752;DHT22;52486;51.098;13.770;2023-05-31T04:35:37;24.40;65.60
65752;DHT22;52486;51.098;13.770;2023-05-31T04:38:03;24.60;65.70
65752;DHT22;52486;51.098;13.770;2023-05-31T04:40:30;24.40;65.60
65752;DHT22;52486;51.098;13.770;2023-05-31T04:43:00;24.30;65.00
65752;DHT22;52486;51.098;13.770;2023-05-31T04:45:28;24.40;65.00
65752;DHT22;52486;51.098;13.770;2023-05-31T04:47:56;24.30;65.30
65752;DHT22;52486;51.098;13.770;2023-05-31T04:50:22;24.60;65.60
65752;DHT22;52486;51.098;13.770;2023-05-31T04:52:48;24.00;76.30
65752;DHT22;52486;51.098;13.770;2023-05-31T04:55:15;24.50;65.60
65752;DHT22;52486;51.098;13.770;2023-05-31T04:57:41;24.50;65.60
65752;DHT22;52486;51.098;13.770;2023-05-31T05:00:07;24.60;66.20
65752;DHT22;52486;51.098;13.770;2023-05-31T05:02:37;24.50;64.70
65752;DHT22;52486;51.098;13.770;2023-05-31T05:05:03;24.50;66.10
65752;DHT22;52486;51.098;13.770;2023-05-31T05:07:30;25.90;77.50
65752;DHT22;52486;51.098;13.770;2023-05-31T05:09:55;25.10;77.10
65752;DHT22;52486;51.098;13.770;2023-05-31T05:12:21;24.40;66.40
65752;DHT22;52486;51.098;13.770;2023-05-31T05:14:47;24.60;66.60
65752;DHT22;52486;51.098;13.770;2023-05-31T05:17:13;24.30;66.50
65752;DHT22;52486;51.098;13.770;2023-05-31T05:19:38;24.90;77.30
65752;DHT22;52486;51.098;13.770;2023-05-31T05:22:04;24.40;66.60
65752;DHT22;52486;51.098;13.770;2023-05-31T05:26:56;24.40;65.00
65752;DHT22;52486;51.098;13.770;2023-05-31T05:29:22;24.30;66.60
65752;DHT22;52486;51.098;13.770;2023-05-31T05:31:48;24.30;77.30
65752;DHT22;52486;51.098;13.770;2023-05-31T05:34:14;24.50;66.30
65752;DHT22;52486;51.098;13.770;2023-05-31T05:36:40;24.50;66.80
65752;DHT22;52486;51.098;13.770;2023-05-31T05:39:06;24.40;66.40
65752;DHT22;52486;51.098;13.770;2023-05-31T05:41:33;24.40;66.50
65752;DHT22;52486;51.098;13.770;2023-05-31T05:43:59;24.40;77.20
65752;DHT22;52486;51.098;13.770;2023-05-31T05:46:25;24.50;66.60
65752;DHT22;52486;51.098;13.770;2023-05-31T05:48:51;24.40;65.90
65752;DHT22;52486;51.098;13.770;2023-05-31T05:51:17;24.40;66.60
65752;DHT22;52486;51.098;13.770;2023-05-31T05:56:09;24.40;65.00
65752;DHT22;52486;51.098;13.770;2023-05-31T05:58:37;24.60;66.50
65752;DHT22;52486;51.098;13.770;2023-05-31T06:01:03;24.40;66.60
65752;DHT22;52486;51.098;13.770;2023-05-31T06:03:29;25.80;77.40
65752;DHT22;52486;51.098;13.770;2023-05-31T06:05:55;24.50;66.40
65752;DHT22;52486;51.098;13.770;2023-05-31T06:08:21;24.50;66.70
65752;DHT22;52486;51.098;13.770;2023-05-31T06:10:47;24.60;66.70
65752;DHT22;52486;51.098;13.770;2023-05-31T06:13:13;24.40;66.70
65752;DHT22;52486;51.098;13.770;2023-05-31T06:15:38;24.30;66.60
65752;DHT22;52486;51.098;13.770;2023-05-31T06:18:04;24.40;66.80
65752;DHT22;52486;51.098;13.770;2023-05-31T06:20:30;24.50;66.80
65752;DHT22;52486;51.098;13.770;2023-05-31T06:22:56;23.80;67.10
65752;DHT22;52486;51.098;13.770;2023-05-31T06:25:22;24.60;67.60
65752;DHT22;52486;51.098;13.770;2023-05-31T06:27:48;24.30;77.70
65752;DHT22;52486;51.098;13.770;2023-05-31T06:30:14;24.60;67.70
65752;DHT22;52486;51.098;13.770;2023-05-31T06:32:39;24.40;66.90
65752;DHT22;52486;51.098;13.770;2023-05-31T06:35:05;25.50;67.10
65752;DHT22;52486;51.098;13.770;2023-05-31T06:37:31;24.40;69.80
65752;DHT22;52486;51.098;13.770;2023-05-31T06:39:57;23.70;69.50
65752;DHT22;52486;51.098;13.770;2023-05-31T06:42:24;23.90;69.50
65752;DHT22;52486;51.098;13.770;2023-05-31T06:44:50;24.30;69.70
65752;DHT22;52486;51.098;13.770;2023-05-31T06:47:17;24.40;69.90
65752;DHT22;52486;51.098;13.770;2023-05-31T06:49:42;24.70;60.00
65752;DHT22;52486;51.098;13.770;2023-05-31T06:57:03;23.90;71.70
65752;DHT22;52486;51.098;13.770;2023-05-31T07:43:30;24.80;84.30
65752;DHT22;52486;51.098;13.770;2023-05-31T07:45:56;23.50;76.00
65752;DHT22;52486;51.098;13.770;2023-05-31T08:07:54;23.60;74.20
65752;DHT22;52486;51.098;13.770;2023-05-31T08:10:19;23.70;68.30
65752;DHT22;52486;51.098;13.770;2023-05-31T08:15:11;23.50;61.90
65752;DHT22;52486;51.098;13.770;2023-05-31T08:22:32;24.00;86.40
65752;DHT22;52486;51.098;13.770;2023-05-31T08:24:59;23.70;69.70
65752;DHT22;52486;51.098;13.770;2023-05-31T08:27:25;24.90;80.20
65752;DHT22;52486;51.098;13.770;2023-05-31T08:29:50;23.40;74.00
65752;DHT22;52486;51.098;13.770;2023-05-31T08:32:17;23.50;76.00
65752;DHT22;52486;51.098;13.770;2023-05-31T08:34:43;22.90;75.90
65752;DHT22;52486;51.098;13.770;2023-05-31T08:37:11;22.90;73.20
65752;DHT22;52486;51.098;13.770;2023-05-31T08:42:04;23.10;65.00
65752;DHT22;52486;51.098;13.770;2023-05-31T08:44:32;23.80;62.50
65752;DHT22;52486;51.098;13.770;2023-05-31T08:47:48;23.80;75.70
65752;DHT22;52486;51.098;13.770;2023-05-31T08:49:53;24.00;75.30
65752;DHT22;52486;51.098;13.770;2023-05-31T08:52:21;23.20;72.10
65752;DHT22;52486;51.098;13.770;2023-05-31T08:54:48;23.20;72.10
65752;DHT22;52486;51.098;13.770;2023-05-31T08:57:16;25.00;73.00
65752;DHT22;52486;51.098;13.770;2023-05-31T08:59:43;23.10;71.40
65752;DHT22;52486;51.098;13.770;2023-05-31T09:02:10;23.90;71.70
65752;DHT22;52486;51.098;13.770;2023-05-31T09:04:40;23.10;71.00
65752;DHT22;52486;51.098;13.770;2023-05-31T10:03:55;25.60;80.60
65752;DHT22;52486;51.098;13.770;2023-05-31T10:06:25;25.40;80.80
65752;DHT22;52486;51.098;13.770;2023-05-31T10:08:51;24.00;70.10
65752;DHT22;52486;51.098;13.770;2023-05-31T10:13:47;23.80;82.80
65752;DHT22;52486;51.098;13.770;2023-05-31T10:16:15;23.90;69.90
65752;DHT22;52486;51.098;13.770;2023-05-31T10:26:31;23.90;80.40
65752;DHT22;52486;51.098;13.770;2023-05-31T10:29:10;23.90;78.20
65752;DHT22;52486;51.098;13.770;2023-05-31T10:31:52;24.10;78.10
65752;DHT22;52486;51.098;13.770;2023-05-31T10:34:26;24.00;77.80
65752;DHT22;52486;51.098;13.770;2023-05-31T10:39:34;23.50;74.80
65752;DHT22;52486;51.098;13.770;2023-05-31T10:42:57;24.60;74.90
65752;DHT22;52486;51.098;13.770;2023-05-31T10:45:25;23.40;63.70
65752;DHT22;52486;51.098;13.770;2023-05-31T10:50:23;24.00;64.00
65752;DHT22;52486;51.098;13.770;2023-05-31T10:53:07;23.40;73.50
65752;DHT22;52486;51.098;13.770;2023-05-31T10:55:43;24.00;63.30
65752;DHT22;52486;51.098;13.770;2023-05-31T10:58:28;23.80;73.80
65752;DHT22;52486;51.098;13.770;2023-05-31T11:00:55;24.10;63.00
65752;DHT22;52486;51.098;13.770;2023-05-31T11:03:24;25.40;74.10
65752;DHT22;52486;51.098;13.770;2023-05-31T11:05:57;25.00;74.20
65752;DHT22;52486;51.098;13.770;2023-05-31T11:08:24;23.80;63.80
65752;DHT22;52486;51.098;13.770;2023-05-31T11:10:50;23.80;75.10
65752;DHT22;52486;51.098;13.770;2023-05-31T11:13:17;24.90;75.90
65752;DHT22;52486;51.098;13.770;2023-05-31T11:15:44;23.80;65.40
65752;DHT22;52486;51.098;13.770;2023-05-31T11:18:22;23.90;72.60
65752;DHT22;52486;51.098;13.770;2023-05-31T11:20:49;23.90;72.90
65752;DHT22;52486;51.098;13.770;2023-05-31T11:26:08;25.00;77.00
65752;DHT22;52486;51.098;13.770;2023-05-31T11:28:53;23.50;76.10
65752;DHT22;52486;51.098;13.770;2023-05-31T11:34:27;23.90;74.00
65752;DHT22;52486;51.098;13.770;2023-05-31T11:56:54;23.10;76.10
65752;DHT22;52486;51.098;13.770;2023-05-31T12:01:47;24.20;64.10
65752;DHT22;52486;51.098;13.770;2023-05-31T12:04:13;23.20;77.60
65752;DHT22;52486;51.098;13.770;2023-05-31T12:09:08;24.30;68.20
65752;DHT22;52486;51.098;13.770;2023-05-31T12:11:35;23.20;79.20
65752;DHT22;52486;51.098;13.770;2023-05-31T12:14:01;24.50;69.20
65752;DHT22;52486;51.098;13.770;2023-05-31T12:16:26;24.60;69.90
65752;DHT22;52486;51.098;13.770;2023-05-31T12:18:53;24.40;69.70
65752;DHT22;52486;51.098;13.770;2023-05-31T12:21:19;24.70;73.40
65752;DHT22;52486;51.098;13.770;2023-05-31T12:23:56;25.50;80.30
65752;DHT22;52486;51.098;13.770;2023-05-31T12:26:24;24.60;70.70
65752;DHT22;52486;51.098;13.770;2023-05-31T12:44:09;25.90;69.10
65752;DHT22;52486;51.098;13.770;2023-05-31T12:46:41;23.70;67.20
65752;DHT22;52486;51.098;13.770;2023-05-31T12:49:11;24.20;58.30
65752;DHT22;52486;51.098;13.770;2023-05-31T12:51:37;23.90;60.80
65752;DHT22;52486;51.098;13.770;2023-05-31T12:54:03;23.80;60.60
65752;DHT22;52486;51.098;13.770;2023-05-31T12:56:28;23.70;63.50
65752;DHT22;52486;51.098;13.770;2023-05-31T13:06:14;24.00;68.70
65752;DHT22;52486;51.098;13.770;2023-05-31T13:11:06;24.30;70.70
65752;DHT22;52486;51.098;13.770;2023-05-31T13:15:57;25.90;72.10
65752;DHT22;52486;51.098;13.770;2023-05-31T13:20:49;24.60;70.50
65752;DHT22;52486;51.098;13.770;2023-05-31T13:23:15;24.30;69.60
65752;DHT22;52486;51.098;13.770;2023-05-31T13:25:40;24.00;71.80
65752;DHT22;52486;51.098;13.770;2023-05-31T13:30:32;23.80;62.00
65752;DHT22;52486;51.098;13.770;2023-05-31T13:35:25;25.30;70.70
65752;DHT22;52486;51.098;13.770;2023-05-31T13:40:17;26.10;72.30
65752;DHT22;52486;51.098;13.770;2023-05-31T13:45:10;23.50;67.90
65752;DHT22;52486;51.098;13.770;2023-05-31T13:47:36;23.60;77.40
65752;DHT22;52486;51.098;13.770;2023-05-31T13:52:28;23.80;69.40
65752;DHT22;52486;51.098;13.770;2023-05-31T13:54:54;23.40;70.00
65752;DHT22;52486;51.098;13.770;2023-05-31T13:57:20;25.00;73.90
65752;DHT22;52486;51.098;13.770;2023-05-31T13:59:46;24.20;72.60
65752;DHT22;52486;51.098;13.770;2023-05-31T14:02:11;24.70;63.00
65752;DHT22;52486;51.098;13.770;2023-05-31T14:04:37;24.70;68.60
65752;DHT22;52486;51.098;13.770;2023-05-31T14:07:03;23.90;74.20
65752;DHT22;52486;51.098;13.770;2023-05-31T14:11:55;24.30;73.80
65752;DHT22;52486;51.098;13.770;2023-05-31T14:14:21;23.70;74.00
65752;DHT22;52486;51.098;13.770;2023-05-31T14:16:47;23.60;71.80
65752;DHT22;52486;51.098;13.770;2023-05-31T14:19:13;24.40;62.10
65752;DHT22;52486;51.098;13.770;2023-05-31T14:21:39;24.80;75.20
65752;DHT22;52486;51.098;13.770;2023-05-31T14:24:05;24.70;77.20
65752;DHT22;52486;51.098;13.770;2023-05-31T14:26:30;24.60;73.60
65752;DHT22;52486;51.098;13.770;2023-05-31T14:28:56;24.80;73.50
65752;DHT22;52486;51.098;13.770;2023-05-31T14:31:22;24.50;72.10
65752;DHT22;52486;51.098;13.770;2023-05-31T14:33:47;24.80;72.40
65752;DHT22;52486;51.098;13.770;2023-05-31T14:36:13;23.80;76.80
65752;DHT22;52486;51.098;13.770;2023-05-31T14:38:39;24.30;79.70
65752;DHT22;52486;51.098;13.770;2023-05-31T14:45:57;24.50;71.90
65752;DHT22;52486;51.098;13.770;2023-05-31T14:48:22;24.70;73.60
65752;DHT22;52486;51.098;13.770;2023-05-31T14:50:48;24.50;73.70
65752;DHT22;52486;51.098;13.770;2023-05-31T14:55:40;24.70;78.30
65752;DHT22;52486;51.098;13.770;2023-05-31T15:02:58;23.80;70.80
65752;DHT22;52486;51.098;13.770;2023-05-31T15:05:24;25.40;72.10
65752;DHT22;52486;51.098;13.770;2023-05-31T15:07:49;23.90;62.20
65752;DHT22;52486;51.098;13.770;2023-05-31T15:10:15;24.70;72.10
65752;DHT22;52486;51.098;13.770;2023-05-31T15:15:07;24.30;70.50
65752;DHT22;52486;51.098;13.770;2023-05-31T15:17:33;24.30;72.40
65752;DHT22;52486;51.098;13.770;2023-05-31T15:19:58;25.40;82.50
65752;DHT22;52486;51.098;13.770;2023-05-31T15:41:52;25.00;81.40
65752;DHT22;52486;51.098;13.770;2023-05-31T15:44:18;24.40;70.10
65752;DHT22;52486;51.098;13.770;2023-05-31T15:56:32;24.10;67.70
65752;DHT22;52486;51.098;13.770;2023-05-31T15:58:58;24.20;68.80
65752;DHT22;52486;51.098;13.770;2023-05-31T16:03:49;24.10;74.20
65752;DHT22;52486;51.098;13.770;2023-05-31T16:08:43;24.80;85.00
65752;DHT22;52486;51.098;13.770;2023-05-31T16:20:54;23.80;67.60
65752;DHT22;52486;51.098;13.770;2023-05-31T16:42:54;24.10;67.20
65752;DHT22;52486;51.098;13.770;2023-05-31T16:45:20;23.90;67.50
65752;DHT22;52486;51.098;13.770;2023-05-31T16:47:46;23.90;68.10
65752;DHT22;52486;51.098;13.770;2023-05-31T16:50:11;25.20;69.00
65752;DHT22;52486;51.098;13.770;2023-05-31T16:55:04;25.50;76.30
65752;DHT22;52486;51.098;13.770;2023-05-31T16:57:31;24.70;64.40
65752;DHT22;52486;51.098;13.770;2023-05-31T17:07:14;22.80;76.10
65752;DHT22;52486;51.098;13.770;2023-05-31T17:12:07;23.30;73.40
65752;DHT22;52486;51.098;13.770;2023-05-31T17:14:33;24.20;62.90
65752;DHT22;52486;51.098;13.770;2023-05-31T17:16:58;24.30;74.50
65752;DHT22;52486;51.098;13.770;2023-05-31T17:19:24;25.60;79.80
65752;DHT22;52486;51.098;13.770;2023-05-31T17:21:50;25.40;74.20
65752;DHT22;52486;51.098;13.770;2023-05-31T17:24:16;23.30;70.70
65752;DHT22;52486;51.098;13.770;2023-05-31T17:26:41;24.20;69.90
65752;DHT22;52486;51.098;13.770;2023-05-31T17:29:11;24.10;57.90
65752;DHT22;52486;51.098;13.770;2023-05-31T17:31:37;24.30;80.40
65752;DHT22;52486;51.098;13.770;2023-05-31T17:34:03;24.60;70.10
65752;DHT22;52486;51.098;13.770;2023-05-31T17:36:30;24.60;75.90
65752;DHT22;52486;51.098;13.770;2023-05-31T17:38:56;23.70;76.10
65752;DHT22;52486;51.098;13.770;2023-05-31T17:41:22;24.50;67.10
65752;DHT22;52486;51.098;13.770;2023-05-31T17:43:48;24.50;71.70
65752;DHT22;52486;51.098;13.770;2023-05-31T17:46:13;24.40;71.80
65752;DHT22;52486;51.098;13.770;2023-05-31T17:48:39;24.40;74.30
65752;DHT22;52486;51.098;13.770;2023-05-31T17:51:08;24.30;76.30
65752;DHT22;52486;51.098;13.770;2023-05-31T17:53:34;24.20;76.10
65752;DHT22;52486;51.098;13.770;2023-05-31T18:05:49;23.50;72.40
65752;DHT22;52486;51.098;13.770;2023-05-31T18:08:16;23.30;72.40
65752;DHT22;52486;51.098;13.770;2023-05-31T18:13:09;23.20;73.70
65752;DHT22;52486;51.098;13.770;2023-05-31T18:15:34;24.00;75.50
65752;DHT22;52486;51.098;13.770;2023-05-31T18:18:00;24.10;78.60
65752;DHT22;52486;51.098;13.770;2023-05-31T18:30:12;24.50;79.30
65752;DHT22;52486;51.098;13.770;2023-05-31T18:32:38;23.70;70.60
65752;DHT22;52486;51.098;13.770;2023-05-31T18:35:04;22.70;70.50
65752;DHT22;52486;51.098;13.770;2023-05-31T18:37:30;23.30;60.50
65752;DHT22;52486;51.098;13.770;2023-05-31T18:44:48;23.80;71.40
65752;DHT22;52486;51.098;13.770;2023-05-31T18:47:13;21.90;70.80
65752;DHT22;52486;51.098;13.770;2023-05-31T18:52:06;22.70;72.00
65752;DHT22;52486;51.098;13.770;2023-05-31T18:59:27;21.60;72.90
65752;DHT22;52486;51.098;13.770;2023-05-31T19:01:54;21.90;73.30
65752;DHT22;52486;51.098;13.770;2023-05-31T19:04:20;23.40;74.30
65752;DHT22;52486;51.098;13.770;2023-05-31T19:06:46;21.80;73.40
65752;DHT22;52486;51.098;13.770;2023-05-31T19:09:13;21.40;73.60
65752;DHT22;52486;51.098;13.770;2023-05-31T19:11:39;20.90;73.50
65752;DHT22;52486;51.098;13.770;2023-05-31T19:14:09;21.90;73.80
65752;DHT22;52486;51.098;13.770;2023-05-31T19:21:28;21.00;74.00
65752;DHT22;52486;51.098;13.770;2023-05-31T19:23:54;21.90;75.40
65752;DHT22;52486;51.098;13.770;2023-05-31T19:26:20;21.70;75.50
65752;DHT22;52486;51.098;13.770;2023-05-31T19:31:13;22.30;76.40
65752;DHT22;52486;51.098;13.770;2023-05-31T19:38:32;22.00;75.40
65752;DHT22;52486;51.098;13.770;2023-05-31T19:40:58;21.10;76.50
65752;DHT22;52486;51.098;13.770;2023-05-31T19:43:23;20.90;77.70
65752;DHT22;52486;51.098;13.770;2023-05-31T19:45:49;20.80;77.50
65752;DHT22;52486;51.098;13.770;2023-05-31T19:48:15;21.70;68.10
65752;DHT22;52486;51.098;13.770;2023-05-31T19:50:41;21.00;72.30
65752;DHT22;52486;51.098;13.770;2023-05-31T19:53:06;20.40;77.40
65752;DHT22;52486;51.098;13.770;2023-05-31T19:55:32;21.00;77.70
65752;DHT22;52486;51.098;13.770;2023-05-31T19:57:58;20.60;77.50
65752;DHT22;52486;51.098;13.770;2023-05-31T20:02:50;21.80;77.80
65752;DHT22;52486;51.098;13.770;2023-05-31T20:05:16;21.40;77.60
65752;DHT22;52486;51.098;13.770;2023-05-31T20:07:41;22.10;81.70
65752;DHT22;52486;51.098;13.770;2023-05-31T20:10:07;20.80;79.50
65752;DHT22;52486;51.098;13.770;2023-05-31T20:12:33;20.30;81.70
65752;DHT22;52486;51.098;13.770;2023-05-31T20:14:59;20.00;81.70
65752;DHT22;52486;51.098;13.770;2023-05-31T20:17:25;20.50;81.90
65752;DHT22;52486;51.098;13.770;2023-05-31T20:19:50;21.90;73.90
65752;DHT22;52486;51.098;13.770;2023-05-31T20:22:16;20.40;82.10
65752;DHT22;52486;51.098;13.770;2023-05-31T20:24:43;21.10;70.80
65752;DHT22;52486;51.098;13.770;2023-05-31T20:27:09;20.10;80.70
65752;DHT22;52486;51.098;13.770;2023-05-31T20:29:35;20.60;80.70
65752;DHT22;52486;51.098;13.770;2023-05-31T20:44:11;20.70;72.80
65752;DHT22;52486;51.098;13.770;2023-05-31T20:49:04;21.10;82.30
65752;DHT22;52486;51.098;13.770;2023-05-31T20:51:29;22.10;82.70
65752;DHT22;52486;51.098;13.770;2023-05-31T20:53:55;19.60;81.50
65752;DHT22;52486;51.098;13.770;2023-05-31T20:56:21;21.70;82.70
65752;DHT22;52486;51.098;13.770;2023-05-31T20:58:47;19.90;81.40
65752;DHT22;52486;51.098;13.770;2023-05-31T21:01:16;21.70;82.50
65752;DHT22;52486;51.098;13.770;2023-05-31T21:03:42;22.00;82.70
65752;DHT22;52486;51.098;13.770;2023-05-31T21:06:07;22.20;82.90
65752;DHT22;52486;51.098;13.770;2023-05-31T21:08:33;20.80;81.70
65752;DHT22;52486;51.098;13.770;2023-05-31T21:10:59;19.90;81.90
65752;DHT22;52486;51.098;13.770;2023-05-31T21:13:25;20.90;81.90
65752;DHT22;52486;51.098;13.770;2023-05-31T21:15:50;20.00;77.90
65752;DHT22;52486;51.098;13.770;2023-05-31T21:18:16;21.60;70.40
65752;DHT22;52486;51.098;13.770;2023-05-31T21:23:08;20.30;78.80
65752;DHT22;52486;51.098;13.770;2023-05-31T21:25:34;20.30;78.50
65752;DHT22;52486;51.098;13.770;2023-05-31T21:27:59;19.80;67.50
65752;DHT22;52486;51.098;13.770;2023-05-31T21:30:25;19.90;78.30
65752;DHT22;52486;51.098;13.770;2023-05-31T21:32:51;19.80;78.50
65752;DHT22;52486;51.098;13.770;2023-05-31T21:35:17;19.90;78.30
65752;DHT22;52486;51.098;13.770;2023-05-31T21:37:44;20.60;68.10
65752;DHT22;52486;51.098;13.770;2023-05-31T21:40:11;19.60;78.10
65752;DHT22;52486;51.098;13.770;2023-05-31T21:42:37;20.10;78.40
65752;DHT22;52486;51.098;13.770;2023-05-31T21:45:04;20.40;67.90
65752;DHT22;52486;51.098;13.770;2023-05-31T21:54:54;19.70;77.90
65752;DHT22;52486;51.098;13.770;2023-05-31T21:59:46;19.60;77.80
65752;DHT22;52486;51.098;13.770;2023-05-31T22:02:12;20.90;72.00
65752;DHT22;52486;51.098;13.770;2023-05-31T22:09:30;21.80;78.80
65752;DHT22;52486;51.098;13.770;2023-05-31T22:11:56;20.20;71.60
65752;DHT22;52486;51.098;13.770;2023-05-31T22:14:21;21.10;70.40
65752;DHT22;52486;51.098;13.770;2023-05-31T22:16:49;20.00;77.20
65752;DHT22;52486;51.098;13.770;2023-05-31T22:19:15;21.20;78.00
65752;DHT22;52486;51.098;13.770;2023-05-31T22:21:51;19.50;77.90
65752;DHT22;52486;51.098;13.770;2023-05-31T22:24:19;19.90;79.10
65752;DHT22;52486;51.098;13.770;2023-05-31T22:29:11;19.20;79.30
65752;DHT22;52486;51.098;13.770;2023-05-31T22:34:02;19.40;79.00
65752;DHT22;52486;51.098;13.770;2023-05-31T22:36:29;20.30;73.60
65752;DHT22;52486;51.098;13.770;2023-05-31T22:38:56;19.40;79.30
65752;DHT22;52486;51.098;13.770;2023-05-31T22:43:48;19.20;78.90
65752;DHT22;52486;51.098;13.770;2023-05-31T22:46:14;19.70;79.10
65752;DHT22;52486;51.098;13.770;2023-05-31T22:51:06;20.80;79.50
65752;DHT22;52486;51.098;13.770;2023-05-31T22:53:36;19.20;73.70
65752;DHT22;52486;51.098;13.770;2023-05-31T22:56:02;19.30;78.90
65752;DHT22;52486;51.098;13.770;2023-05-31T22:58:28;19.00;79.90
65752;DHT22;52486;51.098;13.770;2023-05-31T23:03:20;19.30;80.40
65752;DHT22;52486;51.098;13.770;2023-05-31T23:05:48;19.40;84.70
65752;DHT22;52486;51.098;13.770;2023-05-31T23:08:15;19.40;84.70
65752;DHT22;52486;51.098;13.770;2023-05-31T23:13:13;19.60;83.90
65752;DHT22;52486;51.098;13.770;2023-05-31T23:15:40;20.30;74.10
65752;DHT22;52486;51.098;13.770;2023-05-31T23:18:06;20.60;83.80
65752;DHT22;52486;51.098;13.770;2023-05-31T23:20:35;19.20;82.90
65752;DHT22;52486;51.098;13.770;2023-05-31T23:23:04;21.20;81.40
65752;DHT22;52486;51.098;13.770;2023-05-31T23:45:00;20.00;83.60
65752;DHT22;52486;51.098;13.770;2023-05-31T23:47:26;19.90;84.30
65752;DHT22;52486;51.098;13.770;2023-05-31T23:49:52;19.90;84.40
65752;DHT22;52486;51.098;13.770;2023-05-31T23:52:18;19.90;84.30
65752;DHT22;52486;51.098;13.770;2023-05-31T23:54:44;19.90;83.90
65752;DHT22;52486;51.098;13.770;2023-05-31T23:57:10;20.10;84.30
65752;DHT22;52486;51.098;13.770;2023-05-31T23:59:37;20.00;83.60
